This is the latest recevied weather packets stored in our database for station/object SQ4IXR-4. If no packets are shown the sender has not sent any weather packets the latest 10 day(s).
| Time | Temp. | Humidity | Pressure | Rain* | Wind** | Luminosity | Snow |
|---|---|---|---|---|---|---|---|
| 1777158298 | 7.22° C | 10% | - | - | - | - | - |
| 1777157476 | 7.22° C | 10% | - | - | - | - | - |
| 1777156652 | 7.22° C | 10% | - | - | - | - | - |
| 1777155830 | 7.22° C | 10% | - | - | - | - | - |
| 1777155009 | 7.78° C | 10% | - | - | - | - | - |
| 1777154184 | 8.33° C | 88% | 1005.6 hPa | - | - | - | - |
| 1777152539 | 8.33° C | 96% | 1005.7 hPa | - | - | - | - |
| 1777151717 | 8.33° C | 97% | 1005.8 hPa | - | - | - | - |
| 1777150895 | 8.33° C | 89% | 1006 hPa | - | - | - | - |
| 1777150074 | 9.44° C | 72% | 1006.3 hPa | - | - | - | - |
| 1777149254 | 11.11° C | 55% | 1006.2 hPa | - | - | - | - |
| 1777148433 | 11.11° C | 46% | 1006.3 hPa | - | - | - | - |
| 1777147604 | 11.11° C | 49% | 1006.4 hPa | - | - | - | - |
| 1777146782 | 11.11° C | 48% | 1006.5 hPa | - | - | - | - |
| 1777145959 | 11.67° C | 47% | 1006.6 hPa | - | - | - | - |
| 1777145140 | 11.67° C | 46% | 1006.9 hPa | - | - | - | - |
| 1777144314 | 12.22° C | 44% | 1006.8 hPa | - | - | - | - |
| 1777143490 | 12.22° C | 44% | 1006.7 hPa | - | - | - | - |
| 1777142668 | 12.78° C | 41% | 1006.5 hPa | - | - | - | - |
| 1777141845 | 13.33° C | 43% | 1006.2 hPa | - | - | - | - |
| 1777141021 | 13.33° C | 45% | 1006 hPa | - | - | - | - |
| 1777140196 | 12.78° C | 48% | 1006 hPa | - | - | - | - |
| 1777139374 | 13.33° C | 48% | 1006 hPa | - | - | - | - |
| 1777138552 | 13.89° C | 47% | 1005.9 hPa | - | - | - | - |
| 1777137729 | 13.89° C | 46% | 1006 hPa | - | - | - | - |
* Rain since midnight (hover to see other rain measurements)
** Current wind speed in m/s (hover to see current wind gust speed)